TAF and METAR

Could not understand the following METAR

NZCM 172355Z 19007KT 150V220 9999 OVC085 M08/M19 A2943 RMK AO2A SLP971 T10821191
No TAF available for Williams Field